Greenleafton, Minnesota
Current Conditions -  °F | °C
As of 4:55 PM on Saturday 20 Dec 2014 (Local Time) from KFKA Reporting Station
Haze Haze  
Wind Chill: 23°   Ceiling: 700
Heat Index: 30°   Visibility: 3mi
Dew Point: 28°   Wind: 7mph
Humidity: 95%   Direction: 170°S
Pressure: 30.14"   Gusts: NA
Location:  43.6343°N, 92.1426°W
Report Text: KFKA 202255Z AUTO 17006KT 3SM BR OVC007 M01/M02 A3014 RMK AO2 T10131020
Loading
Personal Weather Stations






























Interactive Weather Map New forecast layout! Learn more

10-Day Weather Forecast

Advertisements
Track Severe Weather on mobile